sensor_id;sensor_type;location;lat;lon;timestamp;P1;durP1;ratioP1;P2;durP2;ratioP2
20014;SDS011;61787;42.022;23.078;2022-10-17T00:00:32;9.43;;;6.83;;
20014;SDS011;61787;42.022;23.078;2022-10-17T00:01:34;16.43;;;7.40;;
20014;SDS011;61787;42.022;23.078;2022-10-17T00:02:36;9.90;;;6.70;;
20014;SDS011;61787;42.022;23.078;2022-10-17T00:03:37;10.00;;;6.30;;
20014;SDS011;61787;42.022;23.078;2022-10-17T00:04:40;9.47;;;5.97;;
20014;SDS011;61787;42.022;23.078;2022-10-17T00:05:43;12.23;;;6.37;;
20014;SDS011;61787;42.022;23.078;2022-10-17T00:06:46;9.77;;;6.20;;
20014;SDS011;61787;42.022;23.078;2022-10-17T00:07:48;10.70;;;6.57;;
20014;SDS011;61787;42.022;23.078;2022-10-17T00:08:49;8.83;;;5.67;;
20014;SDS011;61787;42.022;23.078;2022-10-17T00:09:51;8.27;;;6.13;;
20014;SDS011;61787;42.022;23.078;2022-10-17T00:10:57;9.00;;;6.33;;
20014;SDS011;61787;42.022;23.078;2022-10-17T00:12:03;12.90;;;6.60;;
20014;SDS011;61787;42.022;23.078;2022-10-17T00:13:05;8.77;;;6.47;;
20014;SDS011;61787;42.022;23.078;2022-10-17T00:14:07;8.57;;;6.23;;
20014;SDS011;61787;42.022;23.078;2022-10-17T00:15:10;11.97;;;6.37;;
20014;SDS011;61787;42.022;23.078;2022-10-17T00:16:17;9.27;;;6.20;;
20014;SDS011;61787;42.022;23.078;2022-10-17T00:17:27;9.73;;;6.40;;
20014;SDS011;61787;42.022;23.078;2022-10-17T00:18:30;7.57;;;5.73;;
20014;SDS011;61787;42.022;23.078;2022-10-17T00:19:31;8.73;;;5.97;;
20014;SDS011;61787;42.022;23.078;2022-10-17T00:20:34;7.33;;;6.33;;
20014;SDS011;61787;42.022;23.078;2022-10-17T00:21:36;7.30;;;5.63;;
20014;SDS011;61787;42.022;23.078;2022-10-17T00:22:37;10.87;;;5.73;;
20014;SDS011;61787;42.022;23.078;2022-10-17T00:23:39;9.90;;;6.20;;
20014;SDS011;61787;42.022;23.078;2022-10-17T00:24:40;9.70;;;5.70;;
20014;SDS011;61787;42.022;23.078;2022-10-17T00:25:42;7.13;;;5.27;;
20014;SDS011;61787;42.022;23.078;2022-10-17T00:26:44;8.37;;;5.50;;
20014;SDS011;61787;42.022;23.078;2022-10-17T00:27:45;9.30;;;5.40;;
20014;SDS011;61787;42.022;23.078;2022-10-17T00:28:47;9.00;;;5.60;;
20014;SDS011;61787;42.022;23.078;2022-10-17T00:29:50;7.60;;;5.53;;
20014;SDS011;61787;42.022;23.078;2022-10-17T00:31:02;8.47;;;6.07;;
20014;SDS011;61787;42.022;23.078;2022-10-17T00:32:05;11.77;;;5.37;;
20014;SDS011;61787;42.022;23.078;2022-10-17T00:33:07;6.03;;;5.27;;
20014;SDS011;61787;42.022;23.078;2022-10-17T00:34:08;6.73;;;5.57;;
20014;SDS011;61787;42.022;23.078;2022-10-17T00:35:10;9.43;;;6.10;;
20014;SDS011;61787;42.022;23.078;2022-10-17T00:36:13;6.83;;;5.43;;
20014;SDS011;61787;42.022;23.078;2022-10-17T00:37:16;6.30;;;5.23;;
20014;SDS011;61787;42.022;23.078;2022-10-17T00:38:18;7.03;;;5.20;;
20014;SDS011;61787;42.022;23.078;2022-10-17T00:39:19;7.13;;;5.83;;
20014;SDS011;61787;42.022;23.078;2022-10-17T00:40:21;10.97;;;5.97;;
20014;SDS011;61787;42.022;23.078;2022-10-17T00:41:24;9.97;;;5.87;;
20014;SDS011;61787;42.022;23.078;2022-10-17T00:42:28;10.43;;;5.60;;
20014;SDS011;61787;42.022;23.078;2022-10-17T00:43:47;11.13;;;6.00;;
20014;SDS011;61787;42.022;23.078;2022-10-17T00:45:20;6.33;;;5.10;;
20014;SDS011;61787;42.022;23.078;2022-10-17T00:46:19;9.43;;;5.33;;
20014;SDS011;61787;42.022;23.078;2022-10-17T00:47:21;9.97;;;5.97;;
20014;SDS011;61787;42.022;23.078;2022-10-17T00:48:23;7.97;;;5.80;;
20014;SDS011;61787;42.022;23.078;2022-10-17T00:49:27;9.27;;;6.53;;
20014;SDS011;61787;42.022;23.078;2022-10-17T00:50:31;10.27;;;6.50;;
20014;SDS011;61787;42.022;23.078;2022-10-17T00:51:41;8.53;;;6.10;;
20014;SDS011;61787;42.022;23.078;2022-10-17T00:52:45;11.90;;;6.13;;
20014;SDS011;61787;42.022;23.078;2022-10-17T00:53:49;9.37;;;6.60;;
20014;SDS011;61787;42.022;23.078;2022-10-17T00:54:59;8.73;;;6.27;;
20014;SDS011;61787;42.022;23.078;2022-10-17T00:56:10;9.43;;;6.13;;
20014;SDS011;61787;42.022;23.078;2022-10-17T00:57:13;7.23;;;5.93;;
20014;SDS011;61787;42.022;23.078;2022-10-17T00:58:16;8.43;;;6.40;;
20014;SDS011;61787;42.022;23.078;2022-10-17T00:59:20;7.47;;;5.80;;
20014;SDS011;61787;42.022;23.078;2022-10-17T01:00:23;8.93;;;6.23;;
20014;SDS011;61787;42.022;23.078;2022-10-17T01:01:25;9.63;;;6.50;;
20014;SDS011;61787;42.022;23.078;2022-10-17T01:02:27;10.37;;;6.17;;
20014;SDS011;61787;42.022;23.078;2022-10-17T01:03:29;8.87;;;6.23;;
20014;SDS011;61787;42.022;23.078;2022-10-17T01:04:31;10.27;;;6.13;;
20014;SDS011;61787;42.022;23.078;2022-10-17T01:05:33;8.97;;;6.10;;
20014;SDS011;61787;42.022;23.078;2022-10-17T01:06:34;9.07;;;6.30;;
20014;SDS011;61787;42.022;23.078;2022-10-17T01:07:36;9.40;;;6.10;;
20014;SDS011;61787;42.022;23.078;2022-10-17T01:08:40;7.17;;;6.30;;
20014;SDS011;61787;42.022;23.078;2022-10-17T01:09:42;7.90;;;6.27;;
20014;SDS011;61787;42.022;23.078;2022-10-17T01:12:24;8.37;;;6.13;;
20014;SDS011;61787;42.022;23.078;2022-10-17T01:14:08;7.67;;;6.00;;
20014;SDS011;61787;42.022;23.078;2022-10-17T01:15:15;7.40;;;5.87;;
20014;SDS011;61787;42.022;23.078;2022-10-17T01:21:04;8.53;;;5.93;;
20014;SDS011;61787;42.022;23.078;2022-10-17T01:22:20;10.03;;;5.50;;
20014;SDS011;61787;42.022;23.078;2022-10-17T01:29:33;10.63;;;5.57;;
20014;SDS011;61787;42.022;23.078;2022-10-17T01:30:48;8.37;;;5.53;;
20014;SDS011;61787;42.022;23.078;2022-10-17T01:32:03;7.20;;;5.50;;
20014;SDS011;61787;42.022;23.078;2022-10-17T01:34:31;9.93;;;5.43;;
20014;SDS011;61787;42.022;23.078;2022-10-17T01:38:17;8.77;;;5.73;;
20014;SDS011;61787;42.022;23.078;2022-10-17T01:40:06;8.53;;;5.70;;
20014;SDS011;61787;42.022;23.078;2022-10-17T01:41:13;9.07;;;5.63;;
20014;SDS011;61787;42.022;23.078;2022-10-17T01:42:45;6.80;;;5.07;;
20014;SDS011;61787;42.022;23.078;2022-10-17T01:43:58;6.33;;;4.73;;
20014;SDS011;61787;42.022;23.078;2022-10-17T01:45:26;6.93;;;5.03;;
20014;SDS011;61787;42.022;23.078;2022-10-17T01:46:51;8.53;;;4.67;;
20014;SDS011;61787;42.022;23.078;2022-10-17T01:48:08;5.83;;;4.57;;
20014;SDS011;61787;42.022;23.078;2022-10-17T01:49:19;5.23;;;4.50;;
20014;SDS011;61787;42.022;23.078;2022-10-17T01:50:35;5.03;;;4.53;;
20014;SDS011;61787;42.022;23.078;2022-10-17T01:51:43;7.43;;;5.23;;
20014;SDS011;61787;42.022;23.078;2022-10-17T01:52:54;7.43;;;5.70;;
20014;SDS011;61787;42.022;23.078;2022-10-17T01:54:06;5.80;;;4.60;;
20014;SDS011;61787;42.022;23.078;2022-10-17T01:55:24;6.70;;;5.23;;
20014;SDS011;61787;42.022;23.078;2022-10-17T01:56:30;6.10;;;5.20;;
20014;SDS011;61787;42.022;23.078;2022-10-17T01:57:39;8.77;;;5.30;;
20014;SDS011;61787;42.022;23.078;2022-10-17T01:58:48;6.07;;;4.80;;
20014;SDS011;61787;42.022;23.078;2022-10-17T01:59:54;6.00;;;4.50;;
20014;SDS011;61787;42.022;23.078;2022-10-17T02:00:57;6.10;;;4.60;;
20014;SDS011;61787;42.022;23.078;2022-10-17T02:02:02;5.73;;;4.80;;
20014;SDS011;61787;42.022;23.078;2022-10-17T02:03:06;8.03;;;4.93;;
20014;SDS011;61787;42.022;23.078;2022-10-17T02:04:10;10.03;;;5.27;;
20014;SDS011;61787;42.022;23.078;2022-10-17T02:05:12;9.27;;;5.40;;
20014;SDS011;61787;42.022;23.078;2022-10-17T02:06:14;6.80;;;4.93;;
20014;SDS011;61787;42.022;23.078;2022-10-17T02:07:15;7.17;;;5.00;;
20014;SDS011;61787;42.022;23.078;2022-10-17T02:08:27;8.13;;;5.33;;
20014;SDS011;61787;42.022;23.078;2022-10-17T02:09:39;8.27;;;5.10;;
20014;SDS011;61787;42.022;23.078;2022-10-17T02:12:25;9.97;;;5.73;;
20014;SDS011;61787;42.022;23.078;2022-10-17T02:24:10;7.57;;;5.63;;
20014;SDS011;61787;42.022;23.078;2022-10-17T02:29:27;9.83;;;5.93;;
20014;SDS011;61787;42.022;23.078;2022-10-17T02:30:36;7.47;;;5.50;;
20014;SDS011;61787;42.022;23.078;2022-10-17T02:31:46;7.20;;;5.60;;
20014;SDS011;61787;42.022;23.078;2022-10-17T02:32:54;9.03;;;6.50;;
20014;SDS011;61787;42.022;23.078;2022-10-17T02:34:01;7.37;;;6.47;;
20014;SDS011;61787;42.022;23.078;2022-10-17T02:35:07;9.53;;;6.63;;
20014;SDS011;61787;42.022;23.078;2022-10-17T02:36:14;9.07;;;6.63;;
20014;SDS011;61787;42.022;23.078;2022-10-17T02:37:22;8.87;;;7.00;;
20014;SDS011;61787;42.022;23.078;2022-10-17T02:38:27;8.57;;;7.20;;
20014;SDS011;61787;42.022;23.078;2022-10-17T02:39:30;7.40;;;6.40;;
20014;SDS011;61787;42.022;23.078;2022-10-17T02:40:35;9.63;;;6.97;;
20014;SDS011;61787;42.022;23.078;2022-10-17T02:41:38;10.67;;;6.50;;
20014;SDS011;61787;42.022;23.078;2022-10-17T02:42:43;9.63;;;6.77;;
20014;SDS011;61787;42.022;23.078;2022-10-17T02:43:46;7.37;;;6.00;;
20014;SDS011;61787;42.022;23.078;2022-10-17T02:44:50;7.70;;;5.63;;
20014;SDS011;61787;42.022;23.078;2022-10-17T02:45:53;7.53;;;6.00;;
20014;SDS011;61787;42.022;23.078;2022-10-17T02:47:05;8.83;;;6.57;;
20014;SDS011;61787;42.022;23.078;2022-10-17T02:48:15;7.50;;;6.00;;
20014;SDS011;61787;42.022;23.078;2022-10-17T02:49:22;9.70;;;6.40;;
20014;SDS011;61787;42.022;23.078;2022-10-17T02:52:11;14.37;;;6.87;;
20014;SDS011;61787;42.022;23.078;2022-10-17T02:53:19;9.67;;;6.67;;
20014;SDS011;61787;42.022;23.078;2022-10-17T02:54:53;9.10;;;6.60;;
20014;SDS011;61787;42.022;23.078;2022-10-17T02:55:58;10.33;;;6.20;;
20014;SDS011;61787;42.022;23.078;2022-10-17T02:57:10;10.23;;;6.93;;
20014;SDS011;61787;42.022;23.078;2022-10-17T02:58:15;12.87;;;7.83;;
20014;SDS011;61787;42.022;23.078;2022-10-17T02:59:21;10.27;;;7.10;;
20014;SDS011;61787;42.022;23.078;2022-10-17T03:00:27;14.43;;;7.63;;
20014;SDS011;61787;42.022;23.078;2022-10-17T03:01:30;9.00;;;6.93;;
20014;SDS011;61787;42.022;23.078;2022-10-17T03:02:41;11.33;;;7.37;;
20014;SDS011;61787;42.022;23.078;2022-10-17T03:03:48;11.37;;;7.30;;
20014;SDS011;61787;42.022;23.078;2022-10-17T03:04:49;10.13;;;7.03;;
20014;SDS011;61787;42.022;23.078;2022-10-17T03:05:51;10.03;;;7.30;;
20014;SDS011;61787;42.022;23.078;2022-10-17T03:06:53;12.40;;;7.17;;
20014;SDS011;61787;42.022;23.078;2022-10-17T03:07:55;11.77;;;6.77;;
20014;SDS011;61787;42.022;23.078;2022-10-17T03:08:57;9.77;;;7.00;;
20014;SDS011;61787;42.022;23.078;2022-10-17T03:09:58;10.00;;;5.97;;
20014;SDS011;61787;42.022;23.078;2022-10-17T03:11:00;10.17;;;6.27;;
20014;SDS011;61787;42.022;23.078;2022-10-17T03:12:02;8.70;;;6.40;;
20014;SDS011;61787;42.022;23.078;2022-10-17T03:13:04;7.57;;;6.13;;
20014;SDS011;61787;42.022;23.078;2022-10-17T03:14:05;10.33;;;6.37;;
20014;SDS011;61787;42.022;23.078;2022-10-17T03:15:07;9.20;;;6.23;;
20014;SDS011;61787;42.022;23.078;2022-10-17T03:16:09;8.97;;;6.60;;
20014;SDS011;61787;42.022;23.078;2022-10-17T03:17:11;12.93;;;6.73;;
20014;SDS011;61787;42.022;23.078;2022-10-17T03:18:12;8.20;;;6.67;;
20014;SDS011;61787;42.022;23.078;2022-10-17T03:19:14;8.20;;;6.80;;
20014;SDS011;61787;42.022;23.078;2022-10-17T03:20:16;8.80;;;6.27;;
20014;SDS011;61787;42.022;23.078;2022-10-17T03:21:17;13.27;;;6.70;;
20014;SDS011;61787;42.022;23.078;2022-10-17T03:22:19;12.83;;;6.77;;
20014;SDS011;61787;42.022;23.078;2022-10-17T03:23:21;10.93;;;7.50;;
20014;SDS011;61787;42.022;23.078;2022-10-17T03:24:22;10.90;;;7.37;;
20014;SDS011;61787;42.022;23.078;2022-10-17T03:25:24;12.43;;;7.73;;
20014;SDS011;61787;42.022;23.078;2022-10-17T03:26:26;15.53;;;8.37;;
20014;SDS011;61787;42.022;23.078;2022-10-17T03:27:29;11.37;;;7.17;;
20014;SDS011;61787;42.022;23.078;2022-10-17T03:28:32;10.50;;;7.07;;
20014;SDS011;61787;42.022;23.078;2022-10-17T03:29:33;9.57;;;7.40;;
20014;SDS011;61787;42.022;23.078;2022-10-17T03:30:36;12.23;;;7.93;;
20014;SDS011;61787;42.022;23.078;2022-10-17T03:31:38;13.17;;;8.23;;
20014;SDS011;61787;42.022;23.078;2022-10-17T03:32:40;11.03;;;7.97;;
20014;SDS011;61787;42.022;23.078;2022-10-17T03:33:41;11.43;;;8.23;;
20014;SDS011;61787;42.022;23.078;2022-10-17T03:34:43;10.93;;;8.13;;
20014;SDS011;61787;42.022;23.078;2022-10-17T03:35:45;11.10;;;8.37;;
20014;SDS011;61787;42.022;23.078;2022-10-17T03:36:46;10.70;;;7.73;;
20014;SDS011;61787;42.022;23.078;2022-10-17T03:37:48;12.73;;;7.70;;
20014;SDS011;61787;42.022;23.078;2022-10-17T03:38:52;12.47;;;7.90;;
20014;SDS011;61787;42.022;23.078;2022-10-17T03:39:54;11.30;;;7.43;;
20014;SDS011;61787;42.022;23.078;2022-10-17T03:40:56;10.93;;;7.00;;
20014;SDS011;61787;42.022;23.078;2022-10-17T03:41:58;9.70;;;6.80;;
20014;SDS011;61787;42.022;23.078;2022-10-17T03:42:59;11.00;;;6.87;;
20014;SDS011;61787;42.022;23.078;2022-10-17T03:44:01;9.40;;;6.80;;
20014;SDS011;61787;42.022;23.078;2022-10-17T03:45:03;7.27;;;6.47;;
20014;SDS011;61787;42.022;23.078;2022-10-17T03:46:05;8.77;;;7.10;;
20014;SDS011;61787;42.022;23.078;2022-10-17T03:47:08;10.67;;;6.90;;
20014;SDS011;61787;42.022;23.078;2022-10-17T03:48:14;9.90;;;7.17;;
20014;SDS011;61787;42.022;23.078;2022-10-17T03:49:15;10.90;;;7.30;;
20014;SDS011;61787;42.022;23.078;2022-10-17T03:50:17;11.50;;;7.70;;
20014;SDS011;61787;42.022;23.078;2022-10-17T03:51:19;9.13;;;6.93;;
20014;SDS011;61787;42.022;23.078;2022-10-17T03:52:20;8.27;;;6.97;;
20014;SDS011;61787;42.022;23.078;2022-10-17T03:53:22;8.23;;;7.33;;
20014;SDS011;61787;42.022;23.078;2022-10-17T03:54:24;12.47;;;7.67;;
20014;SDS011;61787;42.022;23.078;2022-10-17T03:55:25;12.60;;;7.77;;
20014;SDS011;61787;42.022;23.078;2022-10-17T03:56:27;11.17;;;7.47;;
20014;SDS011;61787;42.022;23.078;2022-10-17T03:57:29;11.30;;;7.90;;
20014;SDS011;61787;42.022;23.078;2022-10-17T03:58:31;10.30;;;7.23;;
20014;SDS011;61787;42.022;23.078;2022-10-17T03:59:32;11.30;;;8.40;;
20014;SDS011;61787;42.022;23.078;2022-10-17T04:00:34;13.37;;;8.10;;
20014;SDS011;61787;42.022;23.078;2022-10-17T04:01:36;11.27;;;8.30;;
20014;SDS011;61787;42.022;23.078;2022-10-17T04:02:38;10.53;;;7.57;;
20014;SDS011;61787;42.022;23.078;2022-10-17T04:03:40;9.73;;;7.83;;
20014;SDS011;61787;42.022;23.078;2022-10-17T04:04:41;10.40;;;7.43;;
20014;SDS011;61787;42.022;23.078;2022-10-17T04:05:43;12.57;;;7.57;;
20014;SDS011;61787;42.022;23.078;2022-10-17T04:06:45;11.27;;;7.53;;
20014;SDS011;61787;42.022;23.078;2022-10-17T04:07:46;9.60;;;7.80;;
20014;SDS011;61787;42.022;23.078;2022-10-17T04:08:48;13.03;;;7.90;;
20014;SDS011;61787;42.022;23.078;2022-10-17T04:09:50;11.17;;;7.43;;
20014;SDS011;61787;42.022;23.078;2022-10-17T04:10:52;9.73;;;8.10;;
20014;SDS011;61787;42.022;23.078;2022-10-17T04:11:57;12.13;;;8.00;;
20014;SDS011;61787;42.022;23.078;2022-10-17T04:12:59;12.30;;;8.50;;
20014;SDS011;61787;42.022;23.078;2022-10-17T04:14:00;10.33;;;8.53;;
20014;SDS011;61787;42.022;23.078;2022-10-17T04:15:02;10.70;;;8.03;;
20014;SDS011;61787;42.022;23.078;2022-10-17T04:16:05;11.50;;;8.13;;
20014;SDS011;61787;42.022;23.078;2022-10-17T04:17:08;10.37;;;8.60;;
20014;SDS011;61787;42.022;23.078;2022-10-17T04:18:10;9.80;;;8.27;;
20014;SDS011;61787;42.022;23.078;2022-10-17T04:19:12;10.27;;;7.93;;
20014;SDS011;61787;42.022;23.078;2022-10-17T04:20:14;10.73;;;7.93;;
20014;SDS011;61787;42.022;23.078;2022-10-17T04:21:15;9.63;;;8.13;;
20014;SDS011;61787;42.022;23.078;2022-10-17T04:22:18;12.40;;;8.53;;
20014;SDS011;61787;42.022;23.078;2022-10-17T04:23:19;11.20;;;8.10;;
20014;SDS011;61787;42.022;23.078;2022-10-17T04:24:21;11.53;;;8.13;;
20014;SDS011;61787;42.022;23.078;2022-10-17T04:25:23;10.73;;;8.20;;
20014;SDS011;61787;42.022;23.078;2022-10-17T04:26:24;14.70;;;8.57;;
20014;SDS011;61787;42.022;23.078;2022-10-17T04:27:27;9.27;;;7.73;;
20014;SDS011;61787;42.022;23.078;2022-10-17T04:28:29;11.67;;;8.23;;
20014;SDS011;61787;42.022;23.078;2022-10-17T04:29:32;11.77;;;8.57;;
20014;SDS011;61787;42.022;23.078;2022-10-17T04:30:33;11.37;;;9.17;;
20014;SDS011;61787;42.022;23.078;2022-10-17T04:31:35;11.57;;;8.90;;
20014;SDS011;61787;42.022;23.078;2022-10-17T04:32:36;10.57;;;8.17;;
20014;SDS011;61787;42.022;23.078;2022-10-17T04:33:40;11.30;;;9.17;;
20014;SDS011;61787;42.022;23.078;2022-10-17T04:34:42;10.87;;;8.83;;
20014;SDS011;61787;42.022;23.078;2022-10-17T04:35:44;12.83;;;8.57;;
20014;SDS011;61787;42.022;23.078;2022-10-17T04:36:55;11.20;;;8.80;;
20014;SDS011;61787;42.022;23.078;2022-10-17T04:37:57;11.07;;;8.63;;
20014;SDS011;61787;42.022;23.078;2022-10-17T04:38:59;13.57;;;8.80;;
20014;SDS011;61787;42.022;23.078;2022-10-17T04:40:03;11.43;;;8.20;;
20014;SDS011;61787;42.022;23.078;2022-10-17T04:41:06;14.93;;;9.00;;
20014;SDS011;61787;42.022;23.078;2022-10-17T04:42:10;11.47;;;8.77;;
20014;SDS011;61787;42.022;23.078;2022-10-17T04:43:11;10.77;;;8.80;;
20014;SDS011;61787;42.022;23.078;2022-10-17T04:44:13;13.20;;;8.50;;
20014;SDS011;61787;42.022;23.078;2022-10-17T04:45:15;16.07;;;8.87;;
20014;SDS011;61787;42.022;23.078;2022-10-17T04:46:16;10.33;;;8.47;;
20014;SDS011;61787;42.022;23.078;2022-10-17T04:47:18;11.43;;;7.77;;
20014;SDS011;61787;42.022;23.078;2022-10-17T04:48:19;14.10;;;8.27;;
20014;SDS011;61787;42.022;23.078;2022-10-17T04:49:21;11.73;;;8.27;;
20014;SDS011;61787;42.022;23.078;2022-10-17T04:50:22;12.77;;;9.13;;
20014;SDS011;61787;42.022;23.078;2022-10-17T04:51:24;12.50;;;8.70;;
20014;SDS011;61787;42.022;23.078;2022-10-17T04:52:26;12.73;;;8.07;;
20014;SDS011;61787;42.022;23.078;2022-10-17T04:53:32;10.73;;;8.33;;
20014;SDS011;61787;42.022;23.078;2022-10-17T04:54:35;9.73;;;7.50;;
20014;SDS011;61787;42.022;23.078;2022-10-17T04:55:37;13.40;;;8.73;;
20014;SDS011;61787;42.022;23.078;2022-10-17T04:56:39;13.57;;;8.27;;
20014;SDS011;61787;42.022;23.078;2022-10-17T04:57:40;12.70;;;7.83;;
20014;SDS011;61787;42.022;23.078;2022-10-17T04:58:42;10.27;;;7.90;;
20014;SDS011;61787;42.022;23.078;2022-10-17T04:59:45;15.63;;;8.33;;
20014;SDS011;61787;42.022;23.078;2022-10-17T05:00:46;10.57;;;8.03;;
20014;SDS011;61787;42.022;23.078;2022-10-17T05:01:48;10.23;;;8.17;;
20014;SDS011;61787;42.022;23.078;2022-10-17T05:02:49;10.70;;;7.67;;
20014;SDS011;61787;42.022;23.078;2022-10-17T05:03:51;9.53;;;7.93;;
20014;SDS011;61787;42.022;23.078;2022-10-17T05:04:53;9.77;;;8.10;;
20014;SDS011;61787;42.022;23.078;2022-10-17T05:05:55;10.97;;;7.27;;
20014;SDS011;61787;42.022;23.078;2022-10-17T05:06:56;11.17;;;7.87;;
20014;SDS011;61787;42.022;23.078;2022-10-17T05:07:58;11.87;;;8.00;;
20014;SDS011;61787;42.022;23.078;2022-10-17T05:08:59;10.03;;;7.83;;
20014;SDS011;61787;42.022;23.078;2022-10-17T05:10:01;15.70;;;11.77;;
20014;SDS011;61787;42.022;23.078;2022-10-17T05:11:04;21.37;;;12.10;;
20014;SDS011;61787;42.022;23.078;2022-10-17T05:12:06;14.10;;;10.70;;
20014;SDS011;61787;42.022;23.078;2022-10-17T05:13:10;14.70;;;10.73;;
20014;SDS011;61787;42.022;23.078;2022-10-17T05:14:13;19.40;;;11.67;;
20014;SDS011;61787;42.022;23.078;2022-10-17T05:15:15;15.23;;;11.23;;
20014;SDS011;61787;42.022;23.078;2022-10-17T05:16:17;20.67;;;10.83;;
20014;SDS011;61787;42.022;23.078;2022-10-17T05:17:18;15.40;;;11.47;;
20014;SDS011;61787;42.022;23.078;2022-10-17T05:18:20;16.90;;;11.07;;
20014;SDS011;61787;42.022;23.078;2022-10-17T05:19:22;12.60;;;9.80;;
20014;SDS011;61787;42.022;23.078;2022-10-17T05:20:23;12.03;;;8.93;;
20014;SDS011;61787;42.022;23.078;2022-10-17T05:21:25;10.30;;;9.00;;
20014;SDS011;61787;42.022;23.078;2022-10-17T05:22:28;15.20;;;8.70;;
20014;SDS011;61787;42.022;23.078;2022-10-17T05:23:30;9.73;;;8.17;;
20014;SDS011;61787;42.022;23.078;2022-10-17T05:24:32;15.03;;;9.03;;
20014;SDS011;61787;42.022;23.078;2022-10-17T05:25:33;12.10;;;8.63;;
20014;SDS011;61787;42.022;23.078;2022-10-17T05:26:35;11.83;;;7.57;;
20014;SDS011;61787;42.022;23.078;2022-10-17T05:27:36;10.10;;;7.10;;
20014;SDS011;61787;42.022;23.078;2022-10-17T05:28:38;10.50;;;7.07;;
20014;SDS011;61787;42.022;23.078;2022-10-17T05:29:40;10.50;;;7.40;;
20014;SDS011;61787;42.022;23.078;2022-10-17T05:30:42;11.77;;;7.60;;
20014;SDS011;61787;42.022;23.078;2022-10-17T05:31:43;10.53;;;7.00;;
20014;SDS011;61787;42.022;23.078;2022-10-17T05:32:45;9.13;;;6.90;;
20014;SDS011;61787;42.022;23.078;2022-10-17T05:33:46;16.43;;;7.37;;
20014;SDS011;61787;42.022;23.078;2022-10-17T05:34:48;12.73;;;7.50;;
20014;SDS011;61787;42.022;23.078;2022-10-17T05:35:49;9.90;;;7.33;;
20014;SDS011;61787;42.022;23.078;2022-10-17T05:36:51;11.67;;;7.70;;
20014;SDS011;61787;42.022;23.078;2022-10-17T05:37:53;13.57;;;8.83;;
20014;SDS011;61787;42.022;23.078;2022-10-17T05:38:54;14.13;;;9.37;;
20014;SDS011;61787;42.022;23.078;2022-10-17T05:39:56;15.13;;;8.77;;
20014;SDS011;61787;42.022;23.078;2022-10-17T05:40:58;13.17;;;9.20;;
20014;SDS011;61787;42.022;23.078;2022-10-17T05:42:00;12.60;;;8.33;;
20014;SDS011;61787;42.022;23.078;2022-10-17T05:43:02;11.33;;;7.73;;
20014;SDS011;61787;42.022;23.078;2022-10-17T05:44:03;11.83;;;8.00;;
20014;SDS011;61787;42.022;23.078;2022-10-17T05:45:06;9.43;;;7.50;;
20014;SDS011;61787;42.022;23.078;2022-10-17T05:46:08;13.63;;;7.17;;
20014;SDS011;61787;42.022;23.078;2022-10-17T05:47:10;9.53;;;7.17;;
20014;SDS011;61787;42.022;23.078;2022-10-17T05:48:11;11.83;;;7.77;;
20014;SDS011;61787;42.022;23.078;2022-10-17T05:49:13;12.80;;;8.37;;
20014;SDS011;61787;42.022;23.078;2022-10-17T05:50:33;14.90;;;9.00;;
20014;SDS011;61787;42.022;23.078;2022-10-17T05:51:35;12.73;;;8.60;;
20014;SDS011;61787;42.022;23.078;2022-10-17T05:52:37;14.53;;;8.77;;
20014;SDS011;61787;42.022;23.078;2022-10-17T05:53:39;11.37;;;8.03;;
20014;SDS011;61787;42.022;23.078;2022-10-17T05:54:41;10.27;;;7.63;;
20014;SDS011;61787;42.022;23.078;2022-10-17T05:55:43;10.57;;;7.50;;
20014;SDS011;61787;42.022;23.078;2022-10-17T05:56:45;13.33;;;7.97;;
20014;SDS011;61787;42.022;23.078;2022-10-17T05:57:47;14.40;;;8.23;;
20014;SDS011;61787;42.022;23.078;2022-10-17T05:58:49;9.87;;;8.13;;
20014;SDS011;61787;42.022;23.078;2022-10-17T05:59:55;11.77;;;7.67;;
20014;SDS011;61787;42.022;23.078;2022-10-17T06:01:00;15.13;;;8.00;;
20014;SDS011;61787;42.022;23.078;2022-10-17T06:02:04;9.77;;;7.13;;
20014;SDS011;61787;42.022;23.078;2022-10-17T06:03:07;10.90;;;7.10;;
20014;SDS011;61787;42.022;23.078;2022-10-17T06:04:12;7.97;;;6.97;;
20014;SDS011;61787;42.022;23.078;2022-10-17T06:05:14;12.97;;;8.30;;
20014;SDS011;61787;42.022;23.078;2022-10-17T06:06:16;17.53;;;9.33;;
20014;SDS011;61787;42.022;23.078;2022-10-17T06:07:19;19.70;;;9.50;;
20014;SDS011;61787;42.022;23.078;2022-10-17T06:08:21;14.67;;;9.00;;
20014;SDS011;61787;42.022;23.078;2022-10-17T06:09:23;12.23;;;8.10;;
20014;SDS011;61787;42.022;23.078;2022-10-17T06:10:25;9.97;;;7.57;;
20014;SDS011;61787;42.022;23.078;2022-10-17T06:11:26;14.93;;;8.20;;
20014;SDS011;61787;42.022;23.078;2022-10-17T06:12:28;13.10;;;8.60;;
20014;SDS011;61787;42.022;23.078;2022-10-17T06:13:30;15.87;;;9.57;;
20014;SDS011;61787;42.022;23.078;2022-10-17T06:14:31;13.67;;;9.17;;
20014;SDS011;61787;42.022;23.078;2022-10-17T06:15:33;16.30;;;9.53;;
20014;SDS011;61787;42.022;23.078;2022-10-17T06:16:35;21.27;;;10.13;;
20014;SDS011;61787;42.022;23.078;2022-10-17T06:17:36;15.57;;;9.77;;
20014;SDS011;61787;42.022;23.078;2022-10-17T06:18:38;19.00;;;9.30;;
20014;SDS011;61787;42.022;23.078;2022-10-17T06:19:40;15.07;;;8.90;;
20014;SDS011;61787;42.022;23.078;2022-10-17T06:20:42;15.83;;;8.73;;
20014;SDS011;61787;42.022;23.078;2022-10-17T06:21:46;16.13;;;8.73;;
20014;SDS011;61787;42.022;23.078;2022-10-17T06:22:47;10.93;;;7.90;;
20014;SDS011;61787;42.022;23.078;2022-10-17T06:23:49;14.60;;;8.33;;
20014;SDS011;61787;42.022;23.078;2022-10-17T06:24:52;11.60;;;7.73;;
20014;SDS011;61787;42.022;23.078;2022-10-17T06:25:57;10.87;;;8.07;;
20014;SDS011;61787;42.022;23.078;2022-10-17T06:27:02;13.87;;;8.27;;
20014;SDS011;61787;42.022;23.078;2022-10-17T06:28:10;9.97;;;8.27;;
20014;SDS011;61787;42.022;23.078;2022-10-17T06:29:13;14.57;;;8.33;;
20014;SDS011;61787;42.022;23.078;2022-10-17T06:30:14;12.00;;;8.60;;
20014;SDS011;61787;42.022;23.078;2022-10-17T06:31:16;17.87;;;8.90;;
20014;SDS011;61787;42.022;23.078;2022-10-17T06:32:18;19.60;;;9.83;;
20014;SDS011;61787;42.022;23.078;2022-10-17T06:33:19;12.07;;;8.53;;
20014;SDS011;61787;42.022;23.078;2022-10-17T06:34:21;13.50;;;8.60;;
20014;SDS011;61787;42.022;23.078;2022-10-17T06:35:23;14.47;;;9.00;;
20014;SDS011;61787;42.022;23.078;2022-10-17T06:36:24;15.17;;;8.63;;
20014;SDS011;61787;42.022;23.078;2022-10-17T06:37:29;15.60;;;10.77;;
20014;SDS011;61787;42.022;23.078;2022-10-17T06:38:36;19.60;;;10.23;;
20014;SDS011;61787;42.022;23.078;2022-10-17T06:39:38;12.60;;;9.30;;
20014;SDS011;61787;42.022;23.078;2022-10-17T06:40:41;13.50;;;9.90;;
20014;SDS011;61787;42.022;23.078;2022-10-17T06:41:43;17.37;;;10.23;;
20014;SDS011;61787;42.022;23.078;2022-10-17T06:42:45;18.20;;;9.83;;
20014;SDS011;61787;42.022;23.078;2022-10-17T06:43:46;14.97;;;9.70;;
20014;SDS011;61787;42.022;23.078;2022-10-17T06:44:48;15.57;;;10.13;;
20014;SDS011;61787;42.022;23.078;2022-10-17T06:45:49;15.50;;;9.70;;
20014;SDS011;61787;42.022;23.078;2022-10-17T06:46:51;20.20;;;10.10;;
20014;SDS011;61787;42.022;23.078;2022-10-17T06:48:02;19.47;;;9.87;;
20014;SDS011;61787;42.022;23.078;2022-10-17T06:49:03;15.70;;;10.60;;
20014;SDS011;61787;42.022;23.078;2022-10-17T06:50:05;15.03;;;10.33;;
20014;SDS011;61787;42.022;23.078;2022-10-17T06:51:07;16.37;;;9.40;;